Time;durP1;ratioP1;P1;durP2;ratioP2;P2;SDS_P1;SDS_P2;PMS_P1;PMS_P2;Temp;Humidity;BMP_temperature;BMP_pressure;BME280_temperature;BME280_humidity;BME280_pressure;Samples;Min_cycle;Max_cycle;Signal;HPM_P1;HPM_P2
2022/11/04 00:02:14;;;;;;;7.28;4.40;;;12.20;84.80;;;;;;5008755;28;20187;-80
2022/11/04 00:04:42;;;;;;;6.15;3.83;;;12.30;84.70;;;;;;5010489;28;20054;-80
2022/11/04 00:09:50;;;;;;;5.70;2.90;;;12.20;84.50;;;;;;5012473;28;20047;-79
2022/11/04 00:12:25;;;;;;;3.88;1.90;;;12.20;84.50;;;;;;4996132;28;20390;-79
2022/11/04 00:14:53;;;;;;;3.38;1.48;;;12.20;84.30;;;;;;5012385;28;20055;-79
2022/11/04 00:17:20;;;;;;;4.35;1.35;;;12.10;84.10;;;;;;4995264;28;20042;-80
2022/11/04 00:33:24;;;;;;;3.08;1.00;;;11.60;85.00;;;;;;4995242;28;20571;-79
2022/11/04 00:33:45;;;;;;;4.07;0.80;;;11.50;85.20;;;;;;5005440;28;20061;-79
2022/11/04 00:36:13;;;;;;;3.90;0.70;;;11.50;85.30;;;;;;4995126;28;20058;-79
2022/11/04 00:38:40;;;;;;;3.38;0.60;;;11.40;85.70;;;;;;4995210;28;20076;-79
2022/11/04 00:41:24;;;;;;;3.58;0.50;;;11.40;85.70;;;;;;5012862;28;20053;-79
2022/11/04 00:43:58;;;;;;;2.33;0.43;;;11.30;85.70;;;;;;5011791;28;20062;-79
2022/11/04 00:46:25;;;;;;;1.80;0.40;;;11.30;85.70;;;;;;5011756;28;20134;-80
2022/11/04 00:48:52;;;;;;;1.25;0.20;;;11.30;85.70;;;;;;5011268;28;20476;-79
2022/11/04 00:51:22;;;;;;;2.15;0.20;;;11.30;85.80;;;;;;5012647;28;20133;-79
2022/11/04 00:53:50;;;;;;;1.50;0.20;;;11.30;85.70;;;;;;5012991;28;20054;-79
2022/11/04 00:56:17;;;;;;;0.77;0.10;;;11.30;85.60;;;;;;5013074;28;20054;-79
2022/11/04 00:58:44;;;;;;;1.60;0.33;;;11.30;85.50;;;;;;4995191;28;20048;-79
2022/11/04 01:01:16;;;;;;;2.05;0.20;;;11.30;85.30;;;;;;5011771;28;20050;-79
2022/11/04 01:03:43;;;;;;;2.20;0.20;;;11.30;85.30;;;;;;4995122;28;20054;-79
2022/11/04 01:06:10;;;;;;;2.15;0.20;;;11.30;85.00;;;;;;4995106;28;21030;-79
2022/11/04 01:08:40;;;;;;;1.27;0.10;;;11.30;84.90;;;;;;5011367;28;20054;-79
2022/11/04 01:11:08;;;;;;;0.93;0.10;;;11.30;84.80;;;;;;5012135;28;20061;-79
2022/11/04 01:13:36;;;;;;;1.85;0.20;;;11.30;84.70;;;;;;4994749;28;20046;-79
2022/11/04 01:16:05;;;;;;;2.80;0.20;;;11.30;84.90;;;;;;5011305;28;20056;-80
2022/11/04 01:18:32;;;;;;;1.60;0.30;;;11.30;84.90;;;;;;4993721;28;20511;-79
2022/11/04 01:21:00;;;;;;;2.45;0.30;;;11.30;85.00;;;;;;5011737;28;20128;-80
2022/11/04 01:23:27;;;;;;;1.03;0.13;;;11.30;85.10;;;;;;4994790;28;20531;-79
2022/11/04 01:25:56;;;;;;;0.68;0.10;;;11.30;85.30;;;;;;4994858;28;20051;-79
2022/11/04 01:28:23;;;;;;;2.38;0.20;;;11.30;85.50;;;;;;5010750;28;20061;-79
2022/11/04 01:30:50;;;;;;;1.63;0.20;;;11.30;85.70;;;;;;5010806;28;20051;-79
2022/11/04 01:33:17;;;;;;;3.05;0.38;;;11.30;85.80;;;;;;5012431;28;20054;-79
2022/11/04 01:35:44;;;;;;;3.07;0.40;;;11.20;85.90;;;;;;5010040;28;20133;-79
2022/11/04 01:38:11;;;;;;;1.52;0.20;;;11.20;86.10;;;;;;5010761;28;20509;-79
2022/11/04 01:40:40;;;;;;;2.67;0.40;;;11.30;86.40;;;;;;5011560;28;20051;-79
2022/11/04 01:43:14;;;;;;;2.92;0.40;;;11.30;86.20;;;;;;4994582;28;20074;-79
2022/11/04 01:45:44;;;;;;;4.93;0.47;;;11.30;86.30;;;;;;5012515;28;20058;-79
2022/11/04 01:48:16;;;;;;;0.93;0.10;;;11.30;86.60;;;;;;5012269;28;20883;-79
2022/11/04 01:50:43;;;;;;;1.33;0.20;;;11.30;86.70;;;;;;5010447;28;20051;-79
2022/11/04 01:53:15;;;;;;;1.40;0.20;;;11.30;86.60;;;;;;4993162;28;20057;-79
2022/11/04 01:55:48;;;;;;;1.17;0.10;;;11.30;86.70;;;;;;5010765;28;20197;-79
2022/11/04 01:58:19;;;;;;;2.47;0.10;;;11.30;86.80;;;;;;4994034;28;20973;-79
2022/11/04 02:00:47;;;;;;;1.13;0.10;;;11.30;86.70;;;;;;4993864;28;20084;-79
2022/11/04 02:03:18;;;;;;;1.88;0.10;;;11.30;86.80;;;;;;5010319;28;20049;-79
2022/11/04 02:05:47;;;;;;;1.23;0.10;;;11.30;86.60;;;;;;5010504;28;20950;-79
2022/11/04 02:08:16;;;;;;;2.67;0.20;;;11.30;86.50;;;;;;4993893;28;20086;-80
2022/11/04 02:10:49;;;;;;;1.58;0.10;;;11.20;86.20;;;;;;5010528;28;20849;-79
2022/11/04 02:16:28;;;;;;;1.15;0.10;;;11.10;86.10;;;;;;5074915;22;20045;-80
2022/11/04 02:19:10;;;;;;;1.65;0.20;;;11.10;86.20;;;;;;5052588;28;20044;-79
2022/11/04 02:22:23;;;;;;;2.08;0.20;;;11.10;86.50;;;;;;5052919;28;20049;-79
2022/11/04 02:25:17;;;;;;;1.80;0.20;;;11.10;86.40;;;;;;5053216;28;20052;-80
2022/11/04 02:27:59;;;;;;;2.37;0.23;;;11.10;86.50;;;;;;5064454;28;20154;-79
2022/11/04 02:30:35;;;;;;;2.40;0.10;;;11.20;86.60;;;;;;5070064;28;20518;-79
2022/11/04 02:33:29;;;;;;;2.20;0.20;;;11.20;86.80;;;;;;5069918;28;20048;-79
2022/11/04 02:36:02;;;;;;;1.48;0.10;;;11.20;86.90;;;;;;5023531;28;20041;-79
2022/11/04 02:38:36;;;;;;;1.73;0.10;;;11.20;87.00;;;;;;5066124;28;21018;-80
2022/11/04 02:41:12;;;;;;;1.73;0.10;;;11.30;87.00;;;;;;5072849;28;20045;-80
2022/11/04 02:43:49;;;;;;;1.27;0.20;;;11.30;86.80;;;;;;5078445;28;20060;-80
2022/11/04 02:46:24;;;;;;;2.13;0.17;;;11.30;86.80;;;;;;5071218;28;20053;-80
2022/11/04 02:48:59;;;;;;;3.28;0.30;;;11.30;86.90;;;;;;5070403;28;20146;-80
2022/11/04 02:51:31;;;;;;;3.95;0.40;;;11.30;86.80;;;;;;5052364;28;20041;-80
2022/11/04 02:54:05;;;;;;;4.87;0.70;;;11.30;87.00;;;;;;5070987;28;20124;-80
2022/11/04 02:56:38;;;;;;;2.67;0.43;;;11.30;86.90;;;;;;5032819;28;20164;-79
2022/11/04 02:59:10;;;;;;;4.47;0.90;;;11.30;87.10;;;;;;5032593;28;20528;-80
2022/11/04 03:01:43;;;;;;;2.22;0.52;;;11.30;87.10;;;;;;5032855;28;20042;-79
2022/11/04 03:04:14;;;;;;;5.65;1.15;;;11.30;87.10;;;;;;5085621;28;20048;-79
2022/11/04 03:06:44;;;;;;;3.90;0.80;;;11.30;87.20;;;;;;5073120;28;20101;-79
2022/11/04 03:09:15;;;;;;;3.00;0.70;;;11.30;87.10;;;;;;5072172;28;20056;-79
2022/11/04 03:11:45;;;;;;;3.15;0.60;;;11.30;87.10;;;;;;5071966;28;20049;-80
2022/11/04 03:14:16;;;;;;;4.55;0.85;;;11.30;87.10;;;;;;5069191;28;20049;-79
2022/11/04 03:16:49;;;;;;;3.60;0.60;;;11.30;86.90;;;;;;5070813;28;20053;-80
2022/11/04 03:19:22;;;;;;;3.07;0.60;;;11.30;87.00;;;;;;5072561;28;20513;-80
2022/11/04 03:21:54;;;;;;;2.70;0.60;;;11.30;87.00;;;;;;5088050;28;20123;-80
2022/11/04 03:24:21;;;;;;;4.35;0.80;;;11.30;86.90;;;;;;5052192;28;20541;-79
2022/11/04 03:26:55;;;;;;;2.58;0.63;;;11.20;86.80;;;;;;5052094;28;20052;-79
2022/11/04 03:29:27;;;;;;;2.30;0.52;;;11.20;86.80;;;;;;5052041;28;20132;-80
2022/11/04 03:32:04;;;;;;;3.47;0.60;;;11.20;86.80;;;;;;5068882;28;20048;-79
2022/11/04 03:34:32;;;;;;;2.45;0.55;;;11.20;86.70;;;;;;5070398;28;20197;-79
2022/11/04 03:36:59;;;;;;;2.45;0.40;;;11.20;86.50;;;;;;5051997;28;20135;-79
2022/11/04 03:39:26;;;;;;;1.77;0.20;;;11.20;86.50;;;;;;5088541;28;20059;-79
2022/11/04 03:41:56;;;;;;;2.05;0.30;;;11.10;86.10;;;;;;5072361;28;20119;-79
2022/11/04 03:44:24;;;;;;;1.63;0.20;;;11.10;86.10;;;;;;5074332;28;20053;-79
2022/11/04 03:46:52;;;;;;;2.13;0.20;;;11.10;86.00;;;;;;5055957;28;20070;-79
2022/11/04 03:49:22;;;;;;;3.40;0.20;;;11.00;86.00;;;;;;5055154;28;20052;-80
2022/11/04 03:51:49;;;;;;;1.30;0.20;;;11.00;86.00;;;;;;5074053;28;20088;-79
2022/11/04 03:54:17;;;;;;;1.67;0.20;;;10.90;86.10;;;;;;5073915;28;20053;-79
2022/11/04 03:57:06;;;;;;;2.10;0.13;;;10.90;86.20;;;;;;5069012;28;20564;-79
2022/11/04 04:00:01;;;;;;;1.15;0.10;;;10.90;86.20;;;;;;5068674;28;20053;-79
2022/11/04 04:02:39;;;;;;;0.85;0.10;;;10.80;86.20;;;;;;5074029;28;20049;-80
2022/11/04 04:05:13;;;;;;;1.20;0.10;;;10.80;86.30;;;;;;5075481;28;20579;-79
2022/11/04 04:07:46;;;;;;;2.17;0.17;;;10.80;86.40;;;;;;5070947;28;20100;-79
2022/11/04 04:13:06;;;;;;;1.33;0.20;;;10.80;86.50;;;;;;5055801;28;20520;-79
2022/11/04 04:15:43;;;;;;;1.88;0.30;;;10.80;86.60;;;;;;5071126;28;20041;-79
2022/11/04 04:18:13;;;;;;;2.35;0.30;;;10.80;86.70;;;;;;5072774;28;20049;-80
2022/11/04 04:20:46;;;;;;;1.05;0.20;;;10.80;86.90;;;;;;5056471;28;20053;-79
2022/11/04 04:28:53;;;;;;;2.30;0.40;;;10.70;87.20;;;;;;5053952;28;20107;-80
2022/11/04 04:34:03;;;;;;;1.55;0.15;;;10.60;87.50;;;;;;5070312;28;20207;-79
2022/11/04 04:36:34;;;;;;;2.30;0.20;;;10.60;87.70;;;;;;5037645;28;20049;-79
2022/11/04 04:47:19;;;;;;;1.52;0.20;;;10.50;88.20;;;;;;5048628;28;20067;-79
2022/11/04 04:49:52;;;;;;;2.20;0.20;;;10.50;88.20;;;;;;5071040;28;20056;-80
2022/11/04 04:52:23;;;;;;;1.95;0.22;;;10.50;88.30;;;;;;5073793;28;20045;-79
2022/11/04 04:54:50;;;;;;;2.33;0.10;;;10.50;88.00;;;;;;5070916;28;20055;-79
2022/11/04 04:57:17;;;;;;;3.00;0.20;;;10.40;87.90;;;;;;5089644;28;21005;-80
2022/11/04 04:59:44;;;;;;;2.33;0.20;;;10.40;87.90;;;;;;5092242;28;20053;-79
2022/11/04 05:02:11;;;;;;;2.90;0.30;;;10.50;87.70;;;;;;5060586;28;20059;-80
2022/11/04 05:04:38;;;;;;;1.98;0.20;;;10.40;87.70;;;;;;5054538;28;20045;-79
2022/11/04 05:07:08;;;;;;;3.63;0.30;;;10.40;87.70;;;;;;5066992;28;20055;-79
2022/11/04 05:09:37;;;;;;;1.67;0.32;;;10.40;87.40;;;;;;5070899;28;20052;-80
2022/11/04 05:12:04;;;;;;;1.58;0.20;;;10.40;87.20;;;;;;5070901;28;20052;-80
2022/11/04 05:14:31;;;;;;;1.57;0.17;;;10.40;87.10;;;;;;5074456;28;20048;-80
2022/11/04 05:16:58;;;;;;;2.47;0.15;;;10.30;87.00;;;;;;5056963;28;20465;-80
2022/11/04 05:19:25;;;;;;;2.83;0.20;;;10.30;87.00;;;;;;5074694;28;20053;-80
2022/11/04 05:21:53;;;;;;;2.05;0.20;;;10.20;87.00;;;;;;5042214;28;20127;-80
2022/11/04 05:24:20;;;;;;;1.05;0.15;;;10.20;87.10;;;;;;5068630;28;20041;-80
2022/11/04 05:26:48;;;;;;;2.27;0.20;;;10.10;87.00;;;;;;5074267;28;20045;-80
2022/11/04 05:29:15;;;;;;;2.17;0.20;;;10.10;87.10;;;;;;5092343;28;20044;-80
2022/11/04 05:31:42;;;;;;;1.58;0.10;;;10.10;87.00;;;;;;5072054;28;20123;-80
2022/11/04 05:34:10;;;;;;;2.75;0.22;;;10.00;87.10;;;;;;5092530;28;20044;-80
2022/11/04 05:36:37;;;;;;;0.55;0.10;;;10.00;87.20;;;;;;5092756;28;20056;-80
2022/11/04 05:39:05;;;;;;;0.77;0.10;;;10.00;87.30;;;;;;5087384;28;20048;-79
2022/11/04 05:41:32;;;;;;;1.33;0.20;;;10.00;87.20;;;;;;5062534;28;20064;-80
2022/11/04 05:44:03;;;;;;;1.92;0.20;;;10.00;87.20;;;;;;5071752;28;20051;-80
2022/11/04 05:46:30;;;;;;;1.85;0.10;;;9.90;87.30;;;;;;5061767;28;20045;-80
2022/11/04 05:48:58;;;;;;;3.13;0.20;;;10.00;87.10;;;;;;5078818;28;20052;-80
2022/11/04 05:51:27;;;;;;;3.47;0.30;;;9.90;87.10;;;;;;5073983;28;20861;-80
2022/11/04 05:53:54;;;;;;;2.03;0.20;;;9.80;87.20;;;;;;5074219;28;20071;-80
2022/11/04 05:56:21;;;;;;;2.80;0.30;;;9.80;87.40;;;;;;5080490;28;20044;-80
2022/11/04 05:58:48;;;;;;;1.63;0.30;;;9.80;87.20;;;;;;5079246;28;20060;-80
2022/11/04 06:01:26;;;;;;;2.92;0.50;;;9.80;87.10;;;;;;5070117;28;20049;-80
2022/11/04 06:03:54;;;;;;;3.03;0.20;;;9.80;87.10;;;;;;5071589;28;20072;-80
2022/11/04 06:06:23;;;;;;;2.00;0.30;;;9.80;87.10;;;;;;5053173;28;20055;-80
2022/11/04 06:08:51;;;;;;;1.40;0.20;;;9.80;87.10;;;;;;5071752;28;20059;-80
2022/11/04 06:11:19;;;;;;;3.80;0.20;;;9.80;87.00;;;;;;5053324;28;20063;-79
2022/11/04 06:13:46;;;;;;;1.67;0.20;;;9.80;86.70;;;;;;5053088;28;20051;-80
2022/11/04 06:16:13;;;;;;;3.10;0.30;;;9.80;86.70;;;;;;5057717;28;21007;-80
2022/11/04 06:18:42;;;;;;;1.25;0.10;;;9.80;86.60;;;;;;5073325;28;20055;-80
2022/11/04 06:21:20;;;;;;;1.90;0.20;;;9.90;86.40;;;;;;5091424;28;20078;-79
2022/11/04 06:23:47;;;;;;;1.05;0.17;;;9.80;85.90;;;;;;5072872;28;20040;-79
2022/11/04 06:26:15;;;;;;;2.53;0.10;;;9.80;85.80;;;;;;5073109;28;20048;-80
2022/11/04 06:28:42;;;;;;;2.20;0.20;;;9.80;85.70;;;;;;5073203;28;20053;-80
2022/11/04 06:31:11;;;;;;;1.40;0.20;;;9.80;85.60;;;;;;5085686;28;20435;-79
2022/11/04 06:33:38;;;;;;;4.20;0.20;;;9.80;85.50;;;;;;5064681;28;20049;-79
2022/11/04 06:36:09;;;;;;;1.38;0.10;;;9.80;85.50;;;;;;5082603;28;20531;-79
2022/11/04 06:38:37;;;;;;;2.05;0.20;;;9.70;85.40;;;;;;5049331;28;20128;-79
2022/11/04 06:41:05;;;;;;;2.87;0.30;;;9.70;85.40;;;;;;5046584;28;20046;-79
2022/11/04 06:43:32;;;;;;;2.45;0.20;;;9.70;85.40;;;;;;5084881;28;20053;-79
2022/11/04 06:46:01;;;;;;;3.13;0.40;;;9.70;85.40;;;;;;5071215;28;20080;-79
2022/11/04 06:48:29;;;;;;;2.25;0.40;;;9.70;85.30;;;;;;5035040;28;20924;-79
2022/11/04 06:50:57;;;;;;;4.07;0.40;;;9.70;85.30;;;;;;5046746;28;21042;-79
2022/11/04 06:53:26;;;;;;;2.80;0.50;;;9.70;85.30;;;;;;5081572;28;20655;-79
2022/11/04 06:55:53;;;;;;;3.53;0.60;;;9.70;85.30;;;;;;5052684;28;20765;-79
2022/11/04 06:58:21;;;;;;;3.33;0.70;;;9.70;85.40;;;;;;5052400;28;20095;-79
2022/11/04 07:00:52;;;;;;;2.97;0.63;;;9.70;85.40;;;;;;5052596;28;20141;-79
2022/11/04 07:03:19;;;;;;;3.00;0.75;;;9.70;85.50;;;;;;5027648;28;20135;-79
2022/11/04 07:05:46;;;;;;;3.10;0.60;;;9.70;85.60;;;;;;5070614;28;20059;-79
2022/11/04 07:08:14;;;;;;;3.00;0.60;;;9.60;85.60;;;;;;5051903;28;20100;-80
2022/11/04 07:10:42;;;;;;;2.88;0.60;;;9.70;85.60;;;;;;5065663;28;20056;-79
2022/11/04 07:13:09;;;;;;;2.92;0.50;;;9.70;85.60;;;;;;5089724;28;20050;-79
2022/11/04 07:15:38;;;;;;;3.08;0.70;;;9.60;85.60;;;;;;5064055;28;20076;-78
2022/11/04 07:18:05;;;;;;;1.37;0.20;;;9.60;85.50;;;;;;5071297;28;20048;-79
2022/11/04 07:20:32;;;;;;;2.97;0.30;;;9.60;85.40;;;;;;5057274;28;20123;-79
2022/11/04 07:23:00;;;;;;;2.50;0.40;;;9.60;85.40;;;;;;5069172;28;20051;-79
2022/11/04 07:25:27;;;;;;;1.65;0.30;;;9.60;85.40;;;;;;5060852;28;20053;-78
2022/11/04 07:27:55;;;;;;;2.15;0.20;;;9.60;85.40;;;;;;5067237;28;20049;-78
2022/11/04 07:30:22;;;;;;;2.27;0.43;;;9.60;85.50;;;;;;5070591;28;20059;-78
2022/11/04 07:32:50;;;;;;;2.85;0.30;;;9.60;85.70;;;;;;5062041;28;20059;-79
2022/11/04 07:35:20;;;;;;;2.55;0.30;;;9.60;85.70;;;;;;5034919;28;20057;-79
2022/11/04 07:37:47;;;;;;;2.63;0.22;;;9.60;85.80;;;;;;5069964;28;20049;-79
2022/11/04 07:40:14;;;;;;;2.45;0.30;;;9.60;85.80;;;;;;5090564;28;20075;-80
2022/11/04 07:42:41;;;;;;;2.93;0.30;;;9.60;85.90;;;;;;5090479;28;20470;-78
2022/11/04 07:45:17;;;;;;;3.03;0.50;;;9.60;86.00;;;;;;5054888;28;20045;-78
2022/11/04 07:47:44;;;;;;;2.35;0.40;;;9.60;85.90;;;;;;5065111;28;20391;-79
2022/11/04 07:50:12;;;;;;;2.90;0.50;;;9.60;86.00;;;;;;5052096;28;20056;-78
2022/11/04 07:52:39;;;;;;;2.90;0.60;;;9.60;86.00;;;;;;5051848;28;20047;-78
2022/11/04 07:55:07;;;;;;;2.87;0.53;;;9.60;86.10;;;;;;5052480;28;20138;-79
2022/11/04 07:57:34;;;;;;;3.08;0.50;;;9.60;86.10;;;;;;5052056;28;20053;-78
2022/11/04 08:00:01;;;;;;;2.80;0.70;;;9.60;86.10;;;;;;5051837;28;20045;-78
2022/11/04 08:02:29;;;;;;;3.10;0.60;;;9.60;86.10;;;;;;5055058;28;20099;-78
2022/11/04 08:04:56;;;;;;;3.53;0.55;;;9.60;86.10;;;;;;5061598;28;20049;-77
2022/11/04 08:07:23;;;;;;;2.80;0.40;;;9.60;86.20;;;;;;5051848;28;20049;-77
2022/11/04 08:09:51;;;;;;;3.28;0.40;;;9.60;86.20;;;;;;5051562;28;20573;-77
2022/11/04 08:12:19;;;;;;;5.05;0.80;;;9.60;86.30;;;;;;5067245;28;20127;-78
2022/11/04 08:15:24;;;;;;;3.30;0.60;;;9.60;86.30;;;;;;5047618;28;20555;-77
2022/11/04 08:17:53;;;;;;;3.30;0.60;;;9.60;86.40;;;;;;5038196;28;20050;-78
2022/11/04 08:20:20;;;;;;;4.63;0.87;;;9.70;86.80;;;;;;5040183;28;20135;-77
2022/11/04 08:22:47;;;;;;;4.95;0.75;;;9.70;86.90;;;;;;5071915;28;20037;-78
2022/11/04 08:25:14;;;;;;;3.08;0.60;;;9.70;87.10;;;;;;5088811;28;20049;-80
2022/11/04 08:27:41;;;;;;;3.67;0.60;;;9.80;87.10;;;;;;5071497;28;20045;-79
2022/11/04 08:30:09;;;;;;;2.50;0.55;;;9.80;87.30;;;;;;5070311;28;20080;-80
2022/11/04 08:32:36;;;;;;;3.57;0.60;;;9.80;87.30;;;;;;5054809;28;20050;-80
2022/11/04 08:35:08;;;;;;;3.60;0.82;;;9.80;87.50;;;;;;5054314;28;20056;-80
2022/11/04 08:37:35;;;;;;;2.90;0.63;;;9.90;87.50;;;;;;5058518;28;20103;-79
2022/11/04 08:40:02;;;;;;;2.75;0.43;;;10.00;87.60;;;;;;5045632;28;20130;-78
2022/11/04 08:42:29;;;;;;;3.33;0.60;;;10.00;87.60;;;;;;5050266;28;20880;-79
2022/11/04 08:44:56;;;;;;;4.13;0.70;;;10.00;87.60;;;;;;5070962;28;20520;-79
2022/11/04 08:47:23;;;;;;;3.72;0.70;;;10.00;87.70;;;;;;5050830;28;20132;-80
2022/11/04 08:49:50;;;;;;;3.00;0.80;;;10.00;87.80;;;;;;5040488;28;20053;-78
2022/11/04 08:52:19;;;;;;;4.85;1.20;;;10.10;87.90;;;;;;5053721;28;20123;-79
2022/11/04 08:54:46;;;;;;;5.10;1.60;;;10.10;88.10;;;;;;5048319;28;20053;-78
2022/11/04 08:57:13;;;;;;;4.40;1.60;;;10.20;88.10;;;;;;5070839;28;20045;-79
2022/11/04 08:59:40;;;;;;;4.72;1.52;;;10.20;88.00;;;;;;5070951;28;20053;-78
2022/11/04 09:02:10;;;;;;;4.65;1.70;;;10.30;88.00;;;;;;5054643;28;20542;-78
2022/11/04 09:04:37;;;;;;;4.85;2.10;;;10.30;87.80;;;;;;5082852;28;20055;-78
2022/11/04 09:07:05;;;;;;;6.35;2.70;;;10.30;87.90;;;;;;5054091;28;20495;-79
2022/11/04 09:09:34;;;;;;;5.60;2.70;;;10.30;87.90;;;;;;5047444;28;20140;-79
2022/11/04 09:12:01;;;;;;;7.80;3.45;;;10.40;87.90;;;;;;5054293;28;20049;-80
2022/11/04 09:14:28;;;;;;;6.32;2.42;;;10.40;88.00;;;;;;5073513;28;21027;-79
2022/11/04 09:16:56;;;;;;;7.70;2.95;;;10.50;88.20;;;;;;5063496;28;20058;-79
2022/11/04 09:19:23;;;;;;;6.82;3.47;;;10.50;88.00;;;;;;5033334;28;20053;-80
2022/11/04 09:21:50;;;;;;;8.60;5.00;;;10.50;87.70;;;;;;5050912;28;20041;-80
2022/11/04 09:24:17;;;;;;;9.43;5.07;;;10.50;87.60;;;;;;5070868;28;20140;-80
2022/11/04 09:26:46;;;;;;;8.80;5.25;;;10.50;87.50;;;;;;5052690;28;20404;-79
2022/11/04 09:29:13;;;;;;;10.25;5.13;;;10.60;87.40;;;;;;5025572;28;20045;-80
2022/11/04 09:31:42;;;;;;;11.32;5.97;;;10.60;87.00;;;;;;5067536;28;20057;-79
2022/11/04 09:34:09;;;;;;;10.93;6.07;;;10.60;86.80;;;;;;5053484;28;20049;-79
2022/11/04 09:36:36;;;;;;;12.57;6.50;;;10.60;86.90;;;;;;5053051;28;20048;-78
2022/11/04 09:39:03;;;;;;;12.60;7.40;;;10.60;87.00;;;;;;5070046;28;20053;-78
2022/11/04 09:41:58;;;;;;;13.60;6.50;;;10.60;87.00;;;;;;5055885;28;20053;-78
2022/11/04 09:44:28;;;;;;;13.70;7.05;;;10.60;87.10;;;;;;5051776;28;20125;-78
2022/11/04 09:47:00;;;;;;;11.27;6.83;;;10.60;87.20;;;;;;5070316;28;20056;-79
2022/11/04 09:49:29;;;;;;;14.82;7.30;;;10.70;87.30;;;;;;5038212;28;20056;-79
2022/11/04 09:51:58;;;;;;;12.88;6.88;;;10.70;87.50;;;;;;5056969;28;20136;-78
2022/11/04 09:54:30;;;;;;;12.05;6.75;;;10.80;87.30;;;;;;5065873;28;20140;-78
2022/11/04 09:57:00;;;;;;;13.25;6.60;;;10.80;87.20;;;;;;5083589;28;20549;-79
2022/11/04 09:59:31;;;;;;;10.43;5.47;;;10.80;87.30;;;;;;5057134;28;20079;-79
2022/11/04 10:02:20;;;;;;;11.07;5.68;;;10.90;87.20;;;;;;5036282;28;20938;-78
2022/11/04 10:04:56;;;;;;;12.20;5.72;;;10.90;86.70;;;;;;5070421;28;20053;-78
2022/11/04 10:07:41;;;;;;;10.98;6.93;;;10.90;86.60;;;;;;5077950;28;20065;-78
2022/11/04 10:10:19;;;;;;;11.40;6.88;;;10.90;86.10;;;;;;5036147;28;20507;-79
2022/11/04 10:13:07;;;;;;;14.60;7.73;;;11.00;86.10;;;;;;5032734;28;20052;-79
2022/11/04 10:15:58;;;;;;;14.00;8.27;;;11.00;85.90;;;;;;5045021;28;20053;-78
2022/11/04 10:18:43;;;;;;;14.45;8.15;;;11.00;85.70;;;;;;5039064;28;20597;-78
2022/11/04 10:21:21;;;;;;;14.43;7.97;;;11.00;85.70;;;;;;5063987;28;20042;-78
2022/11/04 10:24:01;;;;;;;15.00;6.60;;;11.00;85.80;;;;;;5053673;28;20099;-79
2022/11/04 10:26:36;;;;;;;14.70;6.77;;;11.10;85.80;;;;;;5047249;28;20045;-79
2022/11/04 10:29:13;;;;;;;11.23;5.20;;;11.10;85.90;;;;;;5053019;28;20057;-79
2022/11/04 10:31:42;;;;;;;12.00;5.88;;;11.10;85.80;;;;;;5052343;28;20514;-79
2022/11/04 10:34:22;;;;;;;13.50;6.85;;;11.10;85.50;;;;;;5051859;28;20055;-79
2022/11/04 10:36:49;;;;;;;14.82;7.88;;;11.10;85.40;;;;;;5043704;28;20056;-79
2022/11/04 10:39:25;;;;;;;13.67;7.30;;;11.10;85.60;;;;;;5052642;28;20505;-79
2022/11/04 10:41:52;;;;;;;12.20;7.05;;;11.10;85.70;;;;;;5054180;28;20049;-79
2022/11/04 10:44:25;;;;;;;13.38;7.47;;;11.20;85.80;;;;;;5070465;28;20053;-79
2022/11/04 10:47:01;;;;;;;14.20;7.78;;;11.30;86.10;;;;;;5065841;28;20829;-79
2022/11/04 10:49:46;;;;;;;13.90;7.20;;;11.30;86.20;;;;;;5070480;28;20052;-79
2022/11/04 10:52:13;;;;;;;11.80;5.17;;;11.40;86.30;;;;;;5045306;28;20558;-80
2022/11/04 10:54:44;;;;;;;8.23;4.43;;;11.50;86.00;;;;;;5051940;28;20658;-80
2022/11/04 10:57:13;;;;;;;10.20;4.60;;;11.50;85.70;;;;;;5052429;28;20049;-80
2022/11/04 10:59:52;;;;;;;5.97;2.28;;;11.50;85.70;;;;;;5069923;28;20135;-80
2022/11/04 11:02:42;;;;;;;10.82;4.63;;;11.60;84.90;;;;;;5069469;28;20132;-81
2022/11/04 11:05:15;;;;;;;8.47;3.93;;;11.60;84.90;;;;;;5041366;28;20037;-81
2022/11/04 11:07:43;;;;;;;8.13;3.22;;;11.70;84.60;;;;;;5050925;28;20052;-81
2022/11/04 11:10:19;;;;;;;8.55;2.95;;;11.70;84.00;;;;;;5059026;28;20061;-78
2022/11/04 11:12:52;;;;;;;6.03;2.40;;;11.70;83.30;;;;;;5036344;28;20063;-80
2022/11/04 11:15:28;;;;;;;9.18;4.10;;;11.70;83.30;;;;;;5041685;28;20931;-80
2022/11/04 11:18:01;;;;;;;4.97;2.20;;;11.70;83.30;;;;;;5044088;28;20110;-79
2022/11/04 11:20:30;;;;;;;7.97;4.07;;;11.70;83.00;;;;;;5042746;28;20133;-79
2022/11/04 11:22:58;;;;;;;10.00;5.15;;;11.80;83.10;;;;;;5050891;28;20099;-80
2022/11/04 11:25:27;;;;;;;9.40;4.78;;;11.90;83.20;;;;;;5050790;28;20045;-80
2022/11/04 11:27:57;;;;;;;10.35;5.03;;;11.90;83.10;;;;;;5057559;28;20052;-80
2022/11/04 11:30:30;;;;;;;10.50;5.10;;;11.90;83.10;;;;;;5051192;28;20061;-79
2022/11/04 11:33:03;;;;;;;9.80;4.85;;;12.00;83.20;;;;;;5052244;28;20049;-79
2022/11/04 11:35:40;;;;;;;10.13;5.03;;;12.00;83.50;;;;;;5070439;28;20150;-79
2022/11/04 11:38:18;;;;;;;10.30;4.07;;;12.10;83.30;;;;;;5035499;28;20049;-79
2022/11/04 11:40:47;;;;;;;6.88;3.70;;;12.20;82.50;;;;;;5055224;28;20056;-80
2022/11/04 11:43:24;;;;;;;7.43;3.40;;;12.20;81.90;;;;;;5043443;28;20045;-81
2022/11/04 11:45:53;;;;;;;7.93;3.25;;;12.30;81.90;;;;;;5066328;28;20128;-78
2022/11/04 11:48:32;;;;;;;9.18;4.20;;;12.30;81.50;;;;;;5050836;28;20049;-79
2022/11/04 11:50:59;;;;;;;9.57;3.65;;;12.30;81.40;;;;;;5029192;28;20215;-79
2022/11/04 11:53:29;;;;;;;8.20;3.65;;;12.40;81.40;;;;;;5051618;28;20053;-80
2022/11/04 11:56:09;;;;;;;5.93;3.17;;;12.50;81.40;;;;;;5067079;28;20526;-80
2022/11/04 11:58:43;;;;;;;6.60;2.85;;;12.50;81.50;;;;;;5050600;28;20059;-79
2022/11/04 12:01:18;;;;;;;7.60;2.90;;;12.50;81.80;;;;;;5051607;28;20637;-79
2022/11/04 12:03:47;;;;;;;6.13;1.77;;;12.50;81.00;;;;;;5038100;28;20049;-80
2022/11/04 12:06:31;;;;;;;4.80;1.30;;;12.60;81.70;;;;;;5050279;28;20050;-79
2022/11/04 12:09:22;;;;;;;5.87;1.73;;;12.70;79.60;;;;;;5051766;28;20049;-80
2022/11/04 12:12:01;;;;;;;6.18;1.95;;;12.70;78.40;;;;;;5069747;28;20079;-80
2022/11/04 12:14:47;;;;;;;5.22;1.90;;;12.70;78.00;;;;;;5073522;28;20088;-80
2022/11/04 12:17:29;;;;;;;7.07;1.77;;;12.70;79.10;;;;;;5068717;28;20064;-81
2022/11/04 12:20:06;;;;;;;2.58;0.52;;;12.80;78.00;;;;;;5055324;28;20052;-81
2022/11/04 12:22:44;;;;;;;3.23;0.60;;;12.80;78.60;;;;;;5052959;28;20053;-81
2022/11/04 12:25:20;;;;;;;1.48;0.13;;;12.80;78.90;;;;;;5054896;28;20059;-81
2022/11/04 12:27:53;;;;;;;3.55;0.68;;;12.90;79.20;;;;;;5061703;28;20111;-81
2022/11/04 12:30:23;;;;;;;3.45;0.45;;;13.00;79.40;;;;;;5072652;28;20148;-81
2022/11/04 12:33:05;;;;;;;2.45;0.40;;;13.00;79.50;;;;;;5073297;28;20128;-80
2022/11/04 12:35:47;;;;;;;4.90;0.70;;;13.10;79.30;;;;;;5061326;28;20053;-82
2022/11/04 12:38:29;;;;;;;1.98;0.30;;;13.10;79.10;;;;;;5068074;28;20551;-82
2022/11/04 12:41:05;;;;;;;3.65;0.50;;;13.10;76.80;;;;;;5054339;28;20128;-77
2022/11/04 12:43:40;;;;;;;2.88;0.35;;;13.00;71.40;;;;;;5047936;28;20092;-77
2022/11/04 12:46:15;;;;;;;2.35;0.28;;;12.70;71.50;;;;;;5064001;28;20585;-76
2022/11/04 12:49:03;;;;;;;2.87;0.20;;;12.50;72.30;;;;;;5034902;28;20052;-76
2022/11/04 12:51:42;;;;;;;4.38;0.40;;;12.20;72.40;;;;;;5041701;28;20126;-76
2022/11/04 12:54:31;;;;;;;3.88;0.30;;;12.00;73.70;;;;;;5059470;28;20151;-76
2022/11/04 12:57:11;;;;;;;2.78;0.30;;;11.90;74.20;;;;;;5045539;28;20142;-76
2022/11/04 12:59:51;;;;;;;2.83;0.40;;;11.70;74.30;;;;;;5064821;28;20199;-75
2022/11/04 13:02:23;;;;;;;2.87;0.30;;;11.70;75.00;;;;;;5045421;28;20073;-75
2022/11/04 13:05:00;;;;;;;2.97;0.45;;;11.50;75.50;;;;;;5067282;28;20056;-75
2022/11/04 13:07:33;;;;;;;4.82;0.52;;;11.50;75.90;;;;;;5043601;28;20056;-75
2022/11/04 13:10:05;;;;;;;1.80;0.30;;;11.50;76.30;;;;;;5054757;28;20501;-75
2022/11/04 13:12:37;;;;;;;2.75;0.32;;;11.50;76.70;;;;;;5044488;28;20057;-75
2022/11/04 13:15:14;;;;;;;2.90;0.30;;;11.50;77.00;;;;;;5045316;28;20138;-75
2022/11/04 13:17:43;;;;;;;2.55;0.40;;;11.50;77.20;;;;;;5059637;28;20053;-76
2022/11/04 13:20:21;;;;;;;2.47;0.30;;;11.50;77.40;;;;;;5057536;28;20053;-76
2022/11/04 13:22:51;;;;;;;3.40;0.30;;;11.40;77.60;;;;;;5038444;28;20052;-76
2022/11/04 13:25:26;;;;;;;3.50;0.43;;;11.40;78.00;;;;;;5071066;28;20130;-76
2022/11/04 13:27:53;;;;;;;3.77;0.43;;;11.40;78.20;;;;;;5068989;28;20069;-75
2022/11/04 13:30:24;;;;;;;3.08;0.43;;;11.40;78.60;;;;;;5053200;28;20061;-76
2022/11/04 13:32:58;;;;;;;4.43;0.50;;;11.40;78.90;;;;;;5051616;28;20045;-75
2022/11/04 13:35:32;;;;;;;2.95;0.40;;;11.40;79.10;;;;;;5052628;28;20120;-76
2022/11/04 13:38:04;;;;;;;3.42;0.45;;;11.40;79.20;;;;;;5070373;28;20049;-76
2022/11/04 13:40:42;;;;;;;3.13;0.30;;;11.40;79.30;;;;;;5051644;28;20049;-76
2022/11/04 13:43:38;;;;;;;2.45;0.30;;;11.30;79.30;;;;;;5090222;28;20853;-76
2022/11/04 13:46:18;;;;;;;3.10;0.50;;;11.30;79.50;;;;;;5071255;28;20505;-76
2022/11/04 13:48:55;;;;;;;3.75;0.50;;;11.30;79.50;;;;;;5058321;28;20048;-75